Aérodrome :
LOGIN :

S'inscrire | Disclaimer

   EN    FR    IT 

 










Légende :    VFR   VFR Marginal   IFR   IFR Intensif   IFR Très Intensif
Visi : 
Plafond : 
>= 8 km
>= 3000ft
5 à 8 km
1000 à 3000 ft
1500m à 5 km
500 à 1000 ft
800 à 1500m
200 à 500 ft
< 800m
< 200 ft
Symboles :   Orages  Brouillard  Fortes neiges  Fortes précipitations  Vent > 20 kt
SIGMETs :   Divers  Orages  Givrage  Turbulence  Onde Orograph.  Cendres Volcan.







- Altitude de l'aérodrome : 219 ft
- Code IATA : DNR
- Voir les cartes d'approche


LFRD - Dinard

DERNIER METAR :
  • 242030Z AUTO 04007KT CAVOK 18/10 Q1023 NOSIG

METARs EXPIRÉS :
  • 242000Z AUTO 04006KT CAVOK 18/10 Q1023 NOSIG
  • 241930Z AUTO 02007KT CAVOK 19/13 Q1023 NOSIG
  • 241900Z AUTO 02008KT CAVOK 19/13 Q1023 NOSIG
  • 241830Z AUTO 02009KT CAVOK 19/12 Q1023 NOSIG
  • 241800Z AUTO 02011KT CAVOK 20/11 Q1023 NOSIG

TAF TAF LFRD
Valide du 24 à 18h jusqu'au 25 à 18h UTC


241700Z 2418/2518 01010KT CAVOK
BECMG 2421/2423 04005KT
BECMG 2508/2510 06010KT
PROB30
TEMPO 2515/2518 02015G25KT
ATIS : +33 2 99 16 81 50
Pas de NOTAMs connus pour ce terrain.



MET'MAP, la Météo Aéronautique d'un coup d'oeil ! - Copyright ORBIFLY Décembre 2007 - Disclaimer

ORBIFLY MET'MAP TEAM :

Programmation & Développement : Alexandra Zaïnal
Conception & Développement : Baudouin d'Aumeries
Co-Programmation & Développement : Marc-Olivier Méhu
Soutien technique & logistique : Manuel Goepfert

Contact : metmap@orbifly.com




SOURCES & CREDITS :

   NOAA